createdAt,value
2023-02-28T00:01:28.671Z,40.50
2023-02-28T00:04:01.254Z,42.20
2023-02-28T00:06:32.932Z,42.30
2023-02-28T00:09:08.019Z,57.20
2023-02-28T00:11:40.359Z,51.80
2023-02-28T00:14:13.277Z,55.90
2023-02-28T00:16:45.477Z,55.50
2023-02-28T00:19:18.143Z,47.10
2023-02-28T00:21:50.682Z,42.30
2023-02-28T00:24:22.584Z,44.20
2023-02-28T00:26:54.962Z,39.60
2023-02-28T00:29:29.114Z,39.00
2023-02-28T00:32:03.735Z,39.60
2023-02-28T00:34:40.544Z,42.30
2023-02-28T00:37:14.571Z,40.80
2023-02-28T00:39:58.069Z,36.20
2023-02-28T00:42:30.795Z,36.10
2023-02-28T00:45:05.827Z,38.00
2023-02-28T00:47:39.151Z,38.40
2023-02-28T00:50:15.019Z,40.40
2023-02-28T00:52:48.031Z,41.20
2023-02-28T00:55:20.626Z,43.70
2023-02-28T00:57:53.418Z,46.70
2023-02-28T01:00:26.935Z,46.50
2023-02-28T01:03:03.826Z,45.70
2023-02-28T01:05:35.793Z,48.40
2023-02-28T01:08:08.861Z,49.00
2023-02-28T01:10:50.049Z,54.10
2023-02-28T01:13:25.388Z,54.70
2023-02-28T01:15:59.892Z,52.40
2023-02-28T01:18:33.096Z,51.80
2023-02-28T01:21:08.573Z,52.10
2023-02-28T01:23:44.298Z,49.30
2023-02-28T01:26:19.057Z,50.90
2023-02-28T01:28:53.837Z,49.30
2023-02-28T01:31:26.229Z,51.50
2023-02-28T01:34:00.076Z,53.50
2023-02-28T01:36:33.910Z,55.80
2023-02-28T01:39:07.129Z,57.40
2023-02-28T01:41:40.775Z,53.60
2023-02-28T01:44:44.327Z,53.20
2023-02-28T01:47:17.379Z,52.20
2023-02-28T01:49:50.408Z,54.20
2023-02-28T01:52:25.381Z,56.80
2023-02-28T01:55:02.910Z,58.30
2023-02-28T01:57:41.860Z,56.50
2023-02-28T02:00:20.115Z,54.50
2023-02-28T02:02:56.399Z,51.10
2023-02-28T02:05:38.466Z,56.50
2023-02-28T02:08:14.251Z,56.80
2023-02-28T02:10:52.046Z,54.00
2023-02-28T02:13:42.563Z,56.70
2023-02-28T02:16:27.274Z,55.40
2023-02-28T02:19:17.152Z,57.50
2023-02-28T02:22:24.230Z,57.90
2023-02-28T02:25:20.810Z,57.60
2023-02-28T02:28:18.949Z,60.80
2023-02-28T02:31:33.641Z,59.00
2023-02-28T02:34:29.291Z,66.90
2023-02-28T02:37:34.909Z,65.90
2023-02-28T02:40:17.751Z,66.00
2023-02-28T02:42:58.517Z,68.50
2023-02-28T02:45:36.967Z,66.40
2023-02-28T02:48:14.316Z,66.40
2023-02-28T02:50:52.367Z,69.10
2023-02-28T02:53:31.300Z,71.00
2023-02-28T02:56:06.295Z,70.50
2023-02-28T02:58:44.283Z,75.50
2023-02-28T03:01:28.430Z,76.50
2023-02-28T03:04:03.634Z,77.10
2023-02-28T03:06:35.914Z,86.60
2023-02-28T03:09:07.789Z,83.80
2023-02-28T03:11:42.682Z,82.30
2023-02-28T03:14:33.319Z,86.50
2023-02-28T03:17:27.679Z,83.30
2023-02-28T03:20:09.043Z,85.60
2023-02-28T03:22:57.528Z,82.00
2023-02-28T03:25:41.300Z,87.00
2023-02-28T03:28:20.062Z,84.60
2023-02-28T03:30:59.980Z,84.30
2023-02-28T03:33:37.677Z,85.80
2023-02-28T03:36:16.001Z,84.70
2023-02-28T03:38:54.388Z,78.60
2023-02-28T03:41:30.354Z,74.50
2023-02-28T03:44:08.475Z,72.80
2023-02-28T03:46:43.448Z,82.20
2023-02-28T03:49:21.418Z,83.80
2023-02-28T03:51:56.203Z,90.10
2023-02-28T03:54:33.376Z,99.90
2023-02-28T03:57:13.364Z,97.10
2023-02-28T03:59:50.085Z,97.30
2023-02-28T04:02:22.909Z,94.40
2023-02-28T04:04:57.126Z,92.80
2023-02-28T04:07:30.909Z,87.20
2023-02-28T04:10:04.175Z,88.90
2023-02-28T04:12:36.253Z,92.30
2023-02-28T04:15:13.234Z,91.10
2023-02-28T04:17:44.526Z,90.40
2023-02-28T04:20:17.376Z,91.70
2023-02-28T04:22:50.423Z,85.80
2023-02-28T04:25:23.558Z,89.60
2023-02-28T04:27:56.607Z,88.00
2023-02-28T04:30:27.901Z,86.90
2023-02-28T04:33:00.511Z,81.40
2023-02-28T04:35:33.199Z,80.40
2023-02-28T04:38:10.447Z,80.60
2023-02-28T04:40:43.437Z,83.40
2023-02-28T04:43:16.287Z,79.40
2023-02-28T04:45:48.929Z,81.90
2023-02-28T04:48:22.220Z,78.60
2023-02-28T04:50:55.269Z,79.60
2023-02-28T04:53:27.526Z,81.70
2023-02-28T04:56:00.880Z,81.30
2023-02-28T04:58:32.974Z,79.00
2023-02-28T05:01:21.453Z,75.60
2023-02-28T05:03:57.421Z,72.00
2023-02-28T05:06:31.708Z,72.80
2023-02-28T05:09:03.944Z,74.40
2023-02-28T05:11:36.977Z,68.10
2023-02-28T05:14:16.244Z,67.70
2023-02-28T05:16:48.229Z,62.90
2023-02-28T05:19:25.220Z,68.40
2023-02-28T05:21:59.314Z,64.50
2023-02-28T05:24:37.307Z,64.00
2023-02-28T05:27:10.567Z,60.80
2023-02-28T05:29:43.846Z,58.80
2023-02-28T05:32:16.669Z,61.00
2023-02-28T05:34:49.512Z,58.50
2023-02-28T05:37:23.287Z,56.50
2023-02-28T05:39:55.542Z,53.80
2023-02-28T05:42:29.336Z,54.20
2023-02-28T05:45:02.057Z,52.10
2023-02-28T05:47:35.938Z,50.60
2023-02-28T05:50:12.795Z,52.40
2023-02-28T05:52:45.595Z,53.70
2023-02-28T05:55:17.870Z,52.80
2023-02-28T05:57:49.183Z,55.50
2023-02-28T06:00:23.256Z,53.60
2023-02-28T06:02:59.303Z,52.60
2023-02-28T06:05:32.091Z,54.10
2023-02-28T06:08:04.873Z,53.20
2023-02-28T06:10:38.561Z,51.60
2023-02-28T06:13:10.305Z,51.00
2023-02-28T06:15:43.760Z,49.40
2023-02-28T06:18:16.676Z,49.70
2023-02-28T06:20:55.698Z,48.40
2023-02-28T06:23:32.444Z,51.40
2023-02-28T06:26:03.723Z,48.50
2023-02-28T06:28:36.114Z,47.50
2023-02-28T06:31:16.586Z,58.40
2023-02-28T06:33:50.941Z,49.50
2023-02-28T06:36:24.206Z,48.00
2023-02-28T06:38:57.034Z,50.60
2023-02-28T06:41:29.176Z,52.60
2023-02-28T06:44:04.148Z,54.90
2023-02-28T06:46:38.866Z,56.10
2023-02-28T06:49:10.923Z,54.40
2023-02-28T06:51:45.521Z,58.90
2023-02-28T06:54:18.933Z,60.90
2023-02-28T06:56:50.877Z,63.10
2023-02-28T06:59:24.010Z,55.60
2023-02-28T07:01:57.176Z,58.20
2023-02-28T07:04:29.754Z,60.00
2023-02-28T07:07:01.433Z,57.60
2023-02-28T07:09:34.446Z,59.50
2023-02-28T07:12:05.994Z,58.30
2023-02-28T07:14:38.188Z,60.30
2023-02-28T07:17:12.753Z,59.70
2023-02-28T07:19:44.748Z,61.00
2023-02-28T07:22:20.001Z,59.70
2023-02-28T07:24:50.746Z,61.60
2023-02-28T07:27:26.876Z,59.50
2023-02-28T07:30:02.315Z,61.60
2023-02-28T07:32:34.701Z,65.00
2023-02-28T07:35:08.293Z,62.90
2023-02-28T07:37:42.027Z,84.60
2023-02-28T07:40:18.640Z,65.20
2023-02-28T07:42:51.056Z,65.60
2023-02-28T07:45:24.600Z,60.80
2023-02-28T07:47:57.451Z,63.30
2023-02-28T07:50:31.204Z,66.40
2023-02-28T07:53:04.749Z,68.40
2023-02-28T07:55:36.616Z,64.90
2023-02-28T07:58:09.963Z,62.40
2023-02-28T08:00:41.488Z,67.80
2023-02-28T08:03:15.083Z,69.00
2023-02-28T08:05:49.168Z,67.30
2023-02-28T08:08:21.361Z,62.60
2023-02-28T08:10:52.255Z,54.30
2023-02-28T08:13:27.247Z,58.20
2023-02-28T08:15:58.375Z,52.10
2023-02-28T08:18:30.989Z,48.40
2023-02-28T08:21:06.868Z,51.10
2023-02-28T08:23:39.363Z,43.50
2023-02-28T08:26:12.262Z,47.50
2023-02-28T08:28:43.883Z,49.40
2023-02-28T08:31:17.725Z,56.10
2023-02-28T08:33:52.797Z,56.80
2023-02-28T08:36:42.555Z,55.80
2023-02-28T08:39:14.169Z,54.20
2023-02-28T08:41:47.965Z,53.00
2023-02-28T08:44:21.952Z,49.60
2023-02-28T08:46:55.294Z,46.70
2023-02-28T08:49:27.206Z,43.70
2023-02-28T08:51:58.691Z,37.50
2023-02-28T08:54:32.779Z,42.50
2023-02-28T08:57:04.962Z,45.30
2023-02-28T08:59:37.136Z,43.60
2023-02-28T09:02:13.918Z,38.90
2023-02-28T09:04:48.206Z,39.40
2023-02-28T09:07:21.314Z,40.90
2023-02-28T09:09:55.118Z,40.30
2023-02-28T09:12:28.646Z,36.80
2023-02-28T09:15:01.082Z,43.40
2023-02-28T09:17:33.015Z,40.70
2023-02-28T09:20:07.405Z,42.50
2023-02-28T09:22:39.691Z,42.50
2023-02-28T09:25:12.376Z,39.20
2023-02-28T09:27:46.536Z,34.70
2023-02-28T09:30:31.050Z,33.80
2023-02-28T09:33:03.233Z,33.70
2023-02-28T09:35:38.091Z,29.00
2023-02-28T09:38:10.753Z,30.20
2023-02-28T09:40:49.129Z,29.60
2023-02-28T09:43:23.590Z,23.50
2023-02-28T09:46:01.888Z,23.60
2023-02-28T09:48:41.366Z,21.10
2023-02-28T09:51:30.474Z,10.20
2023-02-28T09:54:02.572Z,10.70
2023-02-28T09:56:39.494Z,15.10
2023-02-28T09:59:20.652Z,14.00
2023-02-28T10:01:59.798Z,12.50
2023-02-28T10:04:46.631Z,8.70
2023-02-28T10:07:40.324Z,10.70
2023-02-28T10:10:30.829Z,8.10
2023-02-28T10:13:05.920Z,9.30
2023-02-28T10:15:39.772Z,6.80
2023-02-28T10:18:16.825Z,11.90
2023-02-28T10:20:51.003Z,16.10
2023-02-28T10:23:27.420Z,13.60
2023-02-28T10:26:03.417Z,14.40
2023-02-28T10:28:35.374Z,12.30
2023-02-28T10:31:08.462Z,12.30
2023-02-28T10:33:41.288Z,11.90
2023-02-28T10:36:17.733Z,12.60
2023-02-28T10:38:51.418Z,15.30
2023-02-28T10:41:35.290Z,17.10
2023-02-28T10:44:28.492Z,12.10
2023-02-28T10:47:01.701Z,14.30
2023-02-28T10:49:32.449Z,12.10
2023-02-28T10:52:04.308Z,13.20
2023-02-28T10:54:38.441Z,10.10
2023-02-28T10:57:19.437Z,9.10
2023-02-28T11:00:07.191Z,9.30
2023-02-28T11:02:41.719Z,8.80
2023-02-28T11:05:32.852Z,8.50
2023-02-28T11:08:13.429Z,8.60
2023-02-28T11:10:55.495Z,8.30
2023-02-28T11:13:32.255Z,8.60
2023-02-28T11:16:06.077Z,8.80
2023-02-28T11:18:43.528Z,7.90
2023-02-28T11:21:20.655Z,9.10
2023-02-28T11:23:59.419Z,9.40
2023-02-28T11:26:44.495Z,12.20
2023-02-28T11:29:25.135Z,12.70
2023-02-28T11:32:19.353Z,12.10
2023-02-28T11:35:04.509Z,11.20
2023-02-28T11:37:37.142Z,11.20
2023-02-28T11:40:18.040Z,14.30
2023-02-28T11:43:03.965Z,12.80
2023-02-28T11:45:52.709Z,10.10
2023-02-28T11:48:30.831Z,11.30
2023-02-28T11:51:12.897Z,15.20
2023-02-28T11:54:05.157Z,11.70
2023-02-28T11:56:41.123Z,11.90
2023-02-28T11:59:44.541Z,17.90
2023-02-28T12:02:35.317Z,14.00
2023-02-28T12:05:27.125Z,13.30
2023-02-28T12:08:13.452Z,13.80
2023-02-28T12:11:03.147Z,14.60
2023-02-28T12:13:48.894Z,14.50
2023-02-28T12:16:48.252Z,11.90
2023-02-28T12:19:26.343Z,13.20
2023-02-28T12:22:19.642Z,15.30
2023-02-28T12:25:14.663Z,15.60
2023-02-28T12:27:51.564Z,12.10
2023-02-28T12:30:30.507Z,11.90
2023-02-28T12:33:10.389Z,10.50
2023-02-28T12:35:49.110Z,9.80
2023-02-28T12:38:23.570Z,14.00
2023-02-28T12:41:03.110Z,12.90
2023-02-28T12:43:39.758Z,20.20
2023-02-28T12:46:14.798Z,15.70
2023-02-28T12:48:49.783Z,12.40
2023-02-28T12:51:23.519Z,10.50
2023-02-28T12:54:13.054Z,6.70
2023-02-28T12:56:52.591Z,10.40
2023-02-28T12:59:32.512Z,10.50
2023-02-28T13:02:37.582Z,11.30
2023-02-28T13:05:52.543Z,9.60
2023-02-28T13:09:09.722Z,10.30
2023-02-28T13:11:47.744Z,17.50
2023-02-28T13:14:39.180Z,10.80
2023-02-28T13:17:37.700Z,9.60
2023-02-28T13:20:20.158Z,10.40
2023-02-28T13:22:53.644Z,11.20
2023-02-28T13:25:55.827Z,10.50
2023-02-28T13:29:09.321Z,13.80
2023-02-28T13:32:11.965Z,9.80
2023-02-28T13:35:06.734Z,8.60
2023-02-28T13:37:43.907Z,9.90
2023-02-28T13:40:37.709Z,13.40
2023-02-28T13:43:13.585Z,9.60
2023-02-28T13:46:13.034Z,10.10
2023-02-28T13:48:44.545Z,11.20
2023-02-28T13:51:46.958Z,9.20
2023-02-28T13:54:31.951Z,8.50
2023-02-28T13:57:26.761Z,9.50
2023-02-28T14:00:17.707Z,9.60
2023-02-28T14:03:22.046Z,11.90
2023-02-28T14:06:13.057Z,13.60
2023-02-28T14:08:55.900Z,12.00
2023-02-28T14:11:33.154Z,11.10
2023-02-28T14:14:07.511Z,12.80
2023-02-28T14:16:48.111Z,11.50
2023-02-28T14:19:26.050Z,12.20
2023-02-28T14:22:13.775Z,10.50
2023-02-28T14:25:22.959Z,12.10
2023-02-28T14:28:08.820Z,12.50
2023-02-28T14:31:03.852Z,9.60
2023-02-28T14:33:59.310Z,10.20
2023-02-28T14:36:36.962Z,14.30
2023-02-28T14:39:16.770Z,13.60
2023-02-28T14:41:49.786Z,14.30
2023-02-28T14:44:24.008Z,12.90
2023-02-28T14:46:58.749Z,11.20
2023-02-28T14:49:32.876Z,10.60
2023-02-28T14:52:16.893Z,12.30
2023-02-28T14:54:53.438Z,14.60
2023-02-28T14:57:27.528Z,13.30
2023-02-28T15:00:11.068Z,14.40
2023-02-28T15:02:44.096Z,14.60
2023-02-28T15:05:34.191Z,12.40
2023-02-28T15:08:13.059Z,11.00
2023-02-28T15:10:47.868Z,12.70
2023-02-28T15:13:24.101Z,12.10
2023-02-28T15:16:03.024Z,12.80
2023-02-28T15:18:44.921Z,15.70
2023-02-28T15:21:19.112Z,14.70
2023-02-28T15:23:55.341Z,13.60
2023-02-28T15:26:34.537Z,16.20
2023-02-28T15:29:10.924Z,19.40
2023-02-28T15:31:56.941Z,13.80
2023-02-28T15:34:44.101Z,14.80
2023-02-28T15:37:35.368Z,18.90
2023-02-28T15:40:16.641Z,14.30
2023-02-28T15:43:05.872Z,14.10
2023-02-28T15:45:42.471Z,18.90
2023-02-28T15:48:22.432Z,13.50
2023-02-28T15:50:57.810Z,13.20
2023-02-28T15:53:35.333Z,15.60
2023-02-28T15:56:28.361Z,15.20
2023-02-28T15:59:04.224Z,13.40
2023-02-28T16:01:39.141Z,19.90
2023-02-28T16:04:19.580Z,20.40
2023-02-28T16:07:05.062Z,21.00
2023-02-28T16:09:43.133Z,22.40
2023-02-28T16:12:15.188Z,24.50
2023-02-28T16:14:49.143Z,31.20
2023-02-28T16:17:25.755Z,30.90
2023-02-28T16:19:59.505Z,28.60
2023-02-28T16:22:31.748Z,25.90
2023-02-28T16:25:04.845Z,29.60
2023-02-28T16:27:41.043Z,28.60
2023-02-28T16:30:23.983Z,27.70
2023-02-28T16:32:58.832Z,39.20
2023-02-28T16:35:31.916Z,33.20
2023-02-28T16:38:04.441Z,32.10
2023-02-28T16:40:39.590Z,31.60
2023-02-28T16:43:27.035Z,26.60
2023-02-28T16:46:01.556Z,28.00
2023-02-28T16:48:33.836Z,23.10
2023-02-28T16:51:07.836Z,27.50
2023-02-28T16:53:41.706Z,23.40
2023-02-28T16:56:19.706Z,24.80
2023-02-28T16:58:54.109Z,22.80
2023-02-28T17:01:27.640Z,27.90
2023-02-28T17:04:01.168Z,44.00
2023-02-28T17:06:34.256Z,44.50
2023-02-28T17:09:06.895Z,44.90
2023-02-28T17:11:40.958Z,37.10
2023-02-28T17:14:15.335Z,34.70
2023-02-28T17:16:48.222Z,33.80
2023-02-28T17:19:23.612Z,29.20
2023-02-28T17:21:55.039Z,29.50
2023-02-28T17:24:31.286Z,28.20
2023-02-28T17:27:04.526Z,34.40
2023-02-28T17:29:36.558Z,32.80
2023-02-28T17:32:17.927Z,32.50
2023-02-28T17:34:51.290Z,32.60
2023-02-28T17:37:22.669Z,30.90
2023-02-28T17:39:55.542Z,33.20
2023-02-28T17:42:27.442Z,34.70
2023-02-28T17:44:59.287Z,35.50
2023-02-28T17:47:31.987Z,37.60
2023-02-28T17:50:04.888Z,36.80
2023-02-28T17:52:37.233Z,32.90
2023-02-28T17:55:10.776Z,37.40
2023-02-28T17:57:44.578Z,39.70
2023-02-28T18:00:25.984Z,38.30
2023-02-28T18:02:57.101Z,41.40
2023-02-28T18:05:30.168Z,39.20
2023-02-28T18:08:02.425Z,39.30
2023-02-28T18:10:35.009Z,41.20
2023-02-28T18:13:07.801Z,41.00
2023-02-28T18:15:40.638Z,44.20
2023-02-28T18:18:16.627Z,48.10
2023-02-28T18:20:50.691Z,50.70
2023-02-28T18:23:22.556Z,48.50
2023-02-28T18:25:56.655Z,47.80
2023-02-28T18:28:29.291Z,47.70
2023-02-28T18:31:06.773Z,55.90
2023-02-28T18:33:39.268Z,67.80
2023-02-28T18:36:11.946Z,64.50
2023-02-28T18:38:44.201Z,58.40
2023-02-28T18:41:15.755Z,55.80
2023-02-28T18:43:48.468Z,46.50
2023-02-28T18:46:23.361Z,40.20
2023-02-28T18:48:55.344Z,45.00
2023-02-28T18:51:28.862Z,42.30
2023-02-28T18:54:01.521Z,43.80
2023-02-28T18:56:33.258Z,50.50
2023-02-28T18:59:07.110Z,49.80
2023-02-28T19:01:38.284Z,43.90
2023-02-28T19:04:13.618Z,43.10
2023-02-28T19:06:46.770Z,37.50
2023-02-28T19:09:22.976Z,43.00
2023-02-28T19:11:53.398Z,42.70
2023-02-28T19:14:24.431Z,41.80
2023-02-28T19:16:57.502Z,44.90
2023-02-28T19:19:28.625Z,45.80
2023-02-28T19:22:00.668Z,48.10
2023-02-28T19:24:34.692Z,54.10
2023-02-28T19:27:06.778Z,49.40
2023-02-28T19:29:39.377Z,46.20
2023-02-28T19:32:12.019Z,49.20
2023-02-28T19:34:46.049Z,45.20
2023-02-28T19:37:17.427Z,44.90
2023-02-28T19:39:49.878Z,46.80
2023-02-28T19:42:21.269Z,44.00
2023-02-28T19:44:53.420Z,44.50
2023-02-28T19:47:28.554Z,43.60
2023-02-28T19:50:00.940Z,42.40
2023-02-28T19:52:31.464Z,48.20
2023-02-28T19:55:05.508Z,45.20
2023-02-28T19:57:37.275Z,35.70
2023-02-28T20:00:15.411Z,32.90
2023-02-28T20:02:48.469Z,38.70
2023-02-28T20:05:23.225Z,37.60
2023-02-28T20:07:55.241Z,37.10
2023-02-28T20:10:26.896Z,42.70
2023-02-28T20:13:02.161Z,50.40
2023-02-28T20:15:34.914Z,51.00
2023-02-28T20:18:08.024Z,53.60
2023-02-28T20:20:41.693Z,48.50
2023-02-28T20:23:13.434Z,45.60
2023-02-28T20:25:46.093Z,36.40
2023-02-28T20:28:19.022Z,34.80
2023-02-28T20:30:51.107Z,40.30
2023-02-28T20:33:22.017Z,35.20
2023-02-28T20:36:01.074Z,38.10
2023-02-28T20:38:33.396Z,59.00
2023-02-28T20:41:07.224Z,66.80
2023-02-28T20:43:40.438Z,83.60
2023-02-28T20:46:12.167Z,57.70
2023-02-28T20:48:46.669Z,57.40
2023-02-28T20:51:18.250Z,42.20
2023-02-28T20:53:51.527Z,84.30
2023-02-28T20:56:24.968Z,41.90
2023-02-28T20:58:57.896Z,54.30
2023-02-28T21:01:30.184Z,53.40
2023-02-28T21:04:03.142Z,59.20
2023-02-28T21:06:36.774Z,49.60
2023-02-28T21:09:09.540Z,44.00
2023-02-28T21:11:43.977Z,42.80
2023-02-28T21:14:18.180Z,46.90
2023-02-28T21:16:49.839Z,56.20
2023-02-28T21:19:22.746Z,54.90
2023-02-28T21:21:56.618Z,55.20
2023-02-28T21:24:29.689Z,60.30
2023-02-28T21:27:02.668Z,54.90
2023-02-28T21:29:34.415Z,60.30
2023-02-28T21:32:07.811Z,66.90
2023-02-28T21:34:39.893Z,66.00
2023-02-28T21:37:11.694Z,83.00
2023-02-28T21:39:42.809Z,85.50
2023-02-28T21:42:14.952Z,102.20
2023-02-28T21:44:48.856Z,89.70
2023-02-28T21:47:26.111Z,96.20
2023-02-28T21:49:58.974Z,94.00
2023-02-28T21:52:30.911Z,87.70
2023-02-28T21:55:05.063Z,84.20
2023-02-28T21:57:39.619Z,77.70
2023-02-28T22:00:17.137Z,90.30
2023-02-28T22:02:50.100Z,74.30
2023-02-28T22:05:23.594Z,66.00
2023-02-28T22:08:01.092Z,59.50
2023-02-28T22:10:42.270Z,52.10
2023-02-28T22:13:13.490Z,47.40
2023-02-28T22:15:45.038Z,50.00
2023-02-28T22:18:17.274Z,52.60
2023-02-28T22:20:56.358Z,66.80
2023-02-28T22:23:26.956Z,54.00
2023-02-28T22:26:02.726Z,55.20
2023-02-28T22:28:36.150Z,54.20
2023-02-28T22:31:18.190Z,56.90
2023-02-28T22:33:52.393Z,56.80
2023-02-28T22:36:23.921Z,54.30
2023-02-28T22:38:55.487Z,52.00
2023-02-28T22:41:27.688Z,50.10
2023-02-28T22:44:00.981Z,46.70
2023-02-28T22:46:35.915Z,51.10
2023-02-28T22:49:08.326Z,51.30
2023-02-28T22:51:40.627Z,48.10
2023-02-28T22:54:11.560Z,52.10
2023-02-28T22:56:43.719Z,57.90
2023-02-28T22:59:17.219Z,56.80
2023-02-28T23:01:49.674Z,58.40
2023-02-28T23:04:25.501Z,56.90
2023-02-28T23:06:58.592Z,60.80
2023-02-28T23:09:30.185Z,58.40
2023-02-28T23:12:02.780Z,62.70
2023-02-28T23:14:36.230Z,60.90
2023-02-28T23:17:09.767Z,59.60
2023-02-28T23:19:42.562Z,60.00
2023-02-28T23:22:16.301Z,60.60
2023-02-28T23:24:47.331Z,56.80
2023-02-28T23:27:19.263Z,58.20
2023-02-28T23:29:50.838Z,58.70
2023-02-28T23:32:21.547Z,53.90
2023-02-28T23:34:56.189Z,53.10
2023-02-28T23:37:32.539Z,54.20
2023-02-28T23:40:08.172Z,52.00
2023-02-28T23:42:41.209Z,48.80
2023-02-28T23:45:14.696Z,48.90
2023-02-28T23:47:47.462Z,43.40
2023-02-28T23:50:21.036Z,53.90
2023-02-28T23:52:56.380Z,46.50
2023-02-28T23:55:30.588Z,57.80
2023-02-28T23:58:03.869Z,58.10
